createdAt,value
2018-12-30T00:00:02.390Z,3.23
2018-12-30T00:03:07.769Z,3.21
2018-12-30T00:06:13.652Z,3.22
2018-12-30T00:09:19.231Z,3.21
2018-12-30T00:12:24.645Z,3.18
2018-12-30T00:15:29.921Z,3.19
2018-12-30T00:18:35.279Z,3.18
2018-12-30T00:21:40.552Z,3.15
2018-12-30T00:24:46.027Z,3.13
2018-12-30T00:27:51.306Z,3.14
2018-12-30T00:30:56.664Z,3.17
2018-12-30T00:34:01.942Z,3.15
2018-12-30T00:37:07.511Z,3.12
2018-12-30T00:40:12.930Z,3.16
2018-12-30T00:43:18.704Z,3.16
2018-12-30T00:46:23.986Z,3.16
2018-12-30T00:49:29.395Z,3.17
2018-12-30T00:52:34.668Z,3.17
2018-12-30T00:55:40.170Z,3.19
2018-12-30T00:58:45.445Z,3.22
2018-12-30T01:01:50.980Z,3.25
2018-12-30T01:04:56.252Z,3.24
2018-12-30T01:08:01.665Z,3.25
2018-12-30T01:11:07.041Z,3.25
2018-12-30T01:14:12.668Z,3.28
2018-12-30T01:17:17.945Z,3.28
2018-12-30T01:20:23.444Z,3.27
2018-12-30T01:23:28.731Z,3.28
2018-12-30T01:26:34.168Z,3.25
2018-12-30T01:29:39.449Z,3.23
2018-12-30T01:32:44.832Z,3.18
2018-12-30T01:35:50.244Z,3.14
2018-12-30T01:38:55.607Z,3.11
2018-12-30T01:42:00.964Z,3.08
2018-12-30T01:45:07.238Z,3.07
2018-12-30T01:48:12.521Z,3.07
2018-12-30T01:51:17.928Z,3.06
2018-12-30T01:54:23.207Z,3.06
2018-12-30T01:57:28.618Z,3.06
2018-12-30T02:00:34.245Z,3.05
2018-12-30T02:03:39.712Z,3.02
2018-12-30T02:06:44.995Z,3.01
2018-12-30T02:09:50.404Z,2.99
2018-12-30T02:12:56.088Z,2.99
2018-12-30T02:16:01.505Z,3.00
2018-12-30T02:19:06.778Z,3.02
2018-12-30T02:22:12.193Z,3.02
2018-12-30T02:25:17.469Z,3.03
2018-12-30T02:28:22.880Z,3.03
2018-12-30T02:31:28.162Z,3.06
2018-12-30T02:34:33.572Z,3.09
2018-12-30T02:37:38.848Z,3.14
2018-12-30T02:40:44.260Z,3.17
2018-12-30T02:43:49.541Z,3.18
2018-12-30T02:46:54.950Z,3.23
2018-12-30T02:50:00.268Z,3.22
2018-12-30T02:53:05.846Z,3.22
2018-12-30T02:56:11.188Z,3.18
2018-12-30T02:59:16.573Z,3.16
2018-12-30T03:02:21.836Z,3.11
2018-12-30T03:05:27.228Z,3.12
2018-12-30T03:08:32.506Z,3.12
2018-12-30T03:11:37.912Z,3.11
2018-12-30T03:14:43.289Z,3.11
2018-12-30T03:17:48.705Z,3.10
2018-12-30T03:20:53.985Z,3.09
2018-12-30T03:23:59.398Z,3.11
2018-12-30T03:27:04.668Z,3.11
2018-12-30T03:30:10.478Z,3.10
2018-12-30T03:33:15.765Z,3.10
2018-12-30T03:36:21.118Z,3.08
2018-12-30T03:39:26.487Z,3.08
2018-12-30T03:42:31.873Z,3.09
2018-12-30T03:45:37.157Z,3.11
2018-12-30T03:48:42.661Z,3.11
2018-12-30T03:51:48.005Z,3.12
2018-12-30T03:54:53.450Z,3.14
2018-12-30T03:57:58.739Z,3.14
2018-12-30T04:01:04.167Z,3.14
2018-12-30T04:04:09.498Z,3.14
2018-12-30T04:07:14.939Z,3.14
2018-12-30T04:10:20.207Z,3.15
2018-12-30T04:13:25.625Z,3.16
2018-12-30T04:16:31.000Z,3.19
2018-12-30T04:19:36.500Z,3.20
2018-12-30T04:22:41.778Z,3.18
2018-12-30T04:25:47.209Z,3.16
2018-12-30T04:28:52.489Z,3.12
2018-12-30T04:31:57.897Z,3.12
2018-12-30T04:35:03.172Z,3.11
2018-12-30T04:38:08.541Z,3.10
2018-12-30T04:41:13.820Z,3.10
2018-12-30T04:44:19.277Z,3.11
2018-12-30T04:47:24.597Z,3.08
2018-12-30T04:50:30.020Z,3.09
2018-12-30T04:53:35.367Z,3.09
2018-12-30T04:56:40.762Z,3.11
2018-12-30T04:59:46.038Z,3.12
2018-12-30T05:02:51.457Z,3.12
2018-12-30T05:05:56.729Z,3.12
2018-12-30T05:09:02.142Z,3.07
2018-12-30T05:12:07.418Z,3.01
2018-12-30T05:15:12.827Z,3.00
2018-12-30T05:18:18.204Z,2.99
2018-12-30T05:21:23.719Z,2.92
2018-12-30T05:24:29.000Z,2.86
2018-12-30T05:27:34.411Z,2.80
2018-12-30T05:30:39.700Z,2.82
2018-12-30T05:33:45.098Z,2.85
2018-12-30T05:36:50.373Z,2.89
2018-12-30T05:39:55.992Z,2.90
2018-12-30T05:43:01.272Z,2.88
2018-12-30T05:46:06.680Z,2.94
2018-12-30T05:49:11.961Z,2.95
2018-12-30T05:52:17.375Z,2.94
2018-12-30T05:55:22.651Z,2.96
2018-12-30T05:58:28.059Z,2.99
2018-12-30T06:01:33.335Z,2.98
2018-12-30T06:04:38.748Z,2.99
2018-12-30T06:07:44.025Z,3.01
2018-12-30T06:10:49.439Z,3.06
2018-12-30T06:13:54.710Z,3.06
2018-12-30T06:17:00.136Z,3.05
2018-12-30T06:20:06.209Z,3.06
2018-12-30T06:23:11.572Z,3.09
2018-12-30T06:26:16.850Z,3.09
2018-12-30T06:29:22.281Z,3.07
2018-12-30T06:32:27.575Z,3.05
2018-12-30T06:35:33.018Z,3.02
2018-12-30T06:38:38.294Z,3.01
2018-12-30T06:41:43.803Z,3.00
2018-12-30T06:44:49.080Z,3.00
2018-12-30T06:47:54.955Z,2.99
2018-12-30T06:51:00.230Z,2.99
2018-12-30T06:54:05.695Z,3.00
2018-12-30T06:57:10.971Z,3.01
2018-12-30T07:00:16.330Z,3.01
2018-12-30T07:03:21.613Z,3.01
2018-12-30T07:06:27.045Z,2.99
2018-12-30T07:09:32.324Z,2.99
2018-12-30T07:12:37.842Z,2.99
2018-12-30T07:15:43.118Z,3.00
2018-12-30T07:18:48.478Z,2.98
2018-12-30T07:21:53.831Z,2.98
2018-12-30T07:24:59.246Z,2.98
2018-12-30T07:28:04.531Z,2.96
2018-12-30T07:31:09.939Z,2.99
2018-12-30T07:34:15.215Z,2.97
2018-12-30T07:37:20.723Z,2.98
2018-12-30T07:40:26.337Z,2.98
2018-12-30T07:43:31.695Z,3.00
2018-12-30T07:46:36.969Z,3.05
2018-12-30T07:49:42.412Z,3.05
2018-12-30T07:52:47.693Z,3.06
2018-12-30T07:55:53.103Z,3.09
2018-12-30T07:58:58.375Z,3.10
2018-12-30T08:02:03.892Z,3.14
2018-12-30T08:05:09.168Z,3.17
2018-12-30T08:08:14.527Z,3.21
2018-12-30T08:11:19.806Z,3.25
2018-12-30T08:14:25.282Z,3.26
2018-12-30T08:17:30.543Z,3.28
2018-12-30T08:20:35.999Z,3.32
2018-12-30T08:23:41.429Z,3.34
2018-12-30T08:26:47.061Z,3.38
2018-12-30T08:29:52.339Z,3.43
2018-12-30T08:32:57.693Z,3.50
2018-12-30T08:36:03.220Z,3.52
2018-12-30T08:39:09.058Z,3.56
2018-12-30T08:42:14.327Z,3.57
2018-12-30T08:45:20.104Z,3.61
2018-12-30T08:48:25.413Z,3.63
2018-12-30T08:51:30.844Z,3.66
2018-12-30T08:54:36.115Z,3.69
2018-12-30T08:57:41.752Z,3.68
2018-12-30T09:00:47.198Z,3.68
2018-12-30T09:03:52.628Z,3.66
2018-12-30T09:06:58.027Z,3.65
2018-12-30T09:10:03.916Z,3.66
2018-12-30T09:13:09.354Z,3.64
2018-12-30T09:16:15.077Z,3.64
2018-12-30T09:19:20.860Z,3.64
2018-12-30T09:22:26.902Z,3.66
2018-12-30T09:25:38.954Z,3.63
2018-12-30T09:28:44.405Z,3.64
2018-12-30T09:31:49.682Z,3.68
2018-12-30T09:34:55.091Z,3.66
2018-12-30T09:38:00.364Z,3.69
2018-12-30T09:41:05.781Z,3.65
2018-12-30T09:44:11.126Z,3.65
2018-12-30T09:47:16.481Z,3.68
2018-12-30T09:50:21.758Z,3.67
2018-12-30T09:53:27.160Z,3.70
2018-12-30T09:56:32.438Z,3.72
2018-12-30T09:59:37.848Z,3.66
2018-12-30T10:02:43.130Z,3.64
2018-12-30T10:05:48.536Z,3.61
2018-12-30T10:08:53.818Z,3.60
2018-12-30T10:11:59.225Z,3.64
2018-12-30T10:15:09.621Z,3.68
2018-12-30T10:18:12.170Z,3.61
2018-12-30T10:21:17.444Z,3.60
2018-12-30T10:24:22.866Z,3.60
2018-12-30T10:27:32.072Z,3.59
2018-12-30T10:30:37.543Z,3.58
2018-12-30T10:33:42.821Z,3.56
2018-12-30T10:36:48.187Z,3.54
2018-12-30T10:39:53.460Z,3.54
2018-12-30T10:42:58.925Z,3.54
2018-12-30T10:46:04.200Z,3.54
2018-12-30T10:49:09.713Z,3.57
2018-12-30T10:52:14.996Z,3.58
2018-12-30T10:55:20.681Z,3.58
2018-12-30T10:58:25.960Z,3.58
2018-12-30T11:01:31.449Z,3.57
2018-12-30T11:04:36.734Z,3.58
2018-12-30T11:07:42.191Z,3.54
2018-12-30T11:10:47.809Z,3.53
2018-12-30T11:13:53.186Z,3.51
2018-12-30T11:16:58.459Z,3.61
2018-12-30T11:20:04.182Z,3.61
2018-12-30T11:23:09.455Z,3.68
2018-12-30T11:26:14.971Z,3.76
2018-12-30T11:29:20.358Z,3.83
2018-12-30T11:32:26.133Z,3.90
2018-12-30T11:35:31.410Z,3.94
2018-12-30T11:38:36.964Z,3.97
2018-12-30T11:41:42.245Z,4.01
2018-12-30T11:44:47.652Z,4.07
2018-12-30T11:47:52.935Z,4.08
2018-12-30T11:50:58.341Z,4.14
2018-12-30T11:54:03.621Z,4.20
2018-12-30T11:57:09.035Z,4.17
2018-12-30T12:00:14.661Z,4.11
2018-12-30T12:03:20.129Z,4.07
2018-12-30T12:06:25.411Z,4.12
2018-12-30T12:09:30.820Z,4.15
2018-12-30T12:12:36.097Z,4.17
2018-12-30T12:15:41.517Z,4.14
2018-12-30T12:18:46.921Z,4.12
2018-12-30T12:21:52.301Z,4.04
2018-12-30T12:24:57.582Z,3.92
2018-12-30T12:28:03.140Z,3.86
2018-12-30T12:31:09.292Z,3.82
2018-12-30T12:34:14.706Z,3.80
2018-12-30T12:37:19.981Z,3.78
2018-12-30T12:40:25.393Z,3.80
2018-12-30T12:43:30.670Z,3.77
2018-12-30T12:46:36.081Z,3.79
2018-12-30T12:49:41.365Z,3.71
2018-12-30T12:52:46.772Z,3.70
2018-12-30T12:55:52.117Z,3.66
2018-12-30T12:58:57.665Z,3.65
2018-12-30T13:02:03.014Z,3.59
2018-12-30T13:05:08.374Z,3.59
2018-12-30T13:08:13.660Z,3.57
2018-12-30T13:11:19.043Z,3.55
2018-12-30T13:14:24.321Z,3.57
2018-12-30T13:17:29.731Z,3.60
2018-12-30T13:20:35.015Z,3.58
2018-12-30T13:23:40.425Z,3.59
2018-12-30T13:26:45.704Z,3.55
2018-12-30T13:29:51.115Z,3.53
2018-12-30T13:32:56.490Z,3.48
2018-12-30T13:36:02.111Z,3.47
2018-12-30T13:39:08.336Z,3.39
2018-12-30T13:42:14.014Z,3.31
2018-12-30T13:45:19.351Z,3.29
2018-12-30T13:48:24.815Z,3.26
2018-12-30T13:51:30.116Z,3.25
2018-12-30T13:54:35.510Z,3.24
2018-12-30T13:57:42.043Z,3.22
2018-12-30T14:00:47.735Z,3.20
2018-12-30T14:03:53.017Z,3.17
2018-12-30T14:06:58.429Z,3.15
2018-12-30T14:10:04.198Z,3.16
2018-12-30T14:13:09.935Z,3.14
2018-12-30T14:16:15.585Z,3.09
2018-12-30T14:19:20.989Z,3.09
2018-12-30T14:22:26.334Z,3.03
2018-12-30T14:25:31.723Z,2.99
2018-12-30T14:28:37.050Z,2.99
2018-12-30T14:31:42.616Z,2.95
2018-12-30T14:34:47.993Z,2.89
2018-12-30T14:37:53.408Z,2.89
2018-12-30T14:40:58.690Z,2.80
2018-12-30T14:44:04.096Z,2.77
2018-12-30T14:47:09.421Z,2.72
2018-12-30T14:50:14.888Z,2.67
2018-12-30T14:53:20.488Z,2.62
2018-12-30T14:56:25.886Z,2.61
2018-12-30T14:59:31.165Z,2.59
2018-12-30T15:02:36.577Z,2.56
2018-12-30T15:05:41.854Z,2.54
2018-12-30T15:08:47.260Z,2.53
2018-12-30T15:11:54.080Z,2.49
2018-12-30T15:14:59.441Z,2.45
2018-12-30T15:18:04.717Z,2.45
2018-12-30T15:21:10.237Z,2.43
2018-12-30T15:24:15.509Z,2.36
2018-12-30T15:27:20.972Z,2.34
2018-12-30T15:30:26.677Z,2.31
2018-12-30T15:33:32.076Z,2.28
2018-12-30T15:36:37.444Z,2.28
2018-12-30T15:39:42.856Z,2.24
2018-12-30T15:42:48.461Z,2.24
2018-12-30T15:45:53.855Z,2.22
2018-12-30T15:48:59.131Z,2.23
2018-12-30T15:52:04.665Z,2.22
2018-12-30T15:55:09.968Z,2.18
2018-12-30T15:58:15.797Z,2.11
2018-12-30T16:01:21.069Z,2.07
2018-12-30T16:04:26.548Z,2.05
2018-12-30T16:07:31.819Z,2.01
2018-12-30T16:10:37.224Z,1.98
2018-12-30T16:13:42.499Z,1.90
2018-12-30T16:16:47.917Z,1.88
2018-12-30T16:19:53.193Z,1.83
2018-12-30T16:22:58.608Z,1.80
2018-12-30T16:26:03.876Z,1.77
2018-12-30T16:29:09.292Z,1.76
2018-12-30T16:32:14.569Z,1.76
2018-12-30T16:35:19.983Z,1.73
2018-12-30T16:38:25.485Z,1.74
2018-12-30T16:41:30.941Z,1.72
2018-12-30T16:44:36.221Z,1.66
2018-12-30T16:47:43.318Z,1.62
2018-12-30T16:50:48.591Z,1.52
2018-12-30T16:53:53.999Z,1.50
2018-12-30T16:56:59.280Z,1.47
2018-12-30T17:00:07.453Z,1.42
2018-12-30T17:03:12.777Z,1.40
2018-12-30T17:06:18.255Z,1.39
2018-12-30T17:09:23.529Z,1.33
2018-12-30T17:12:28.930Z,1.33
2018-12-30T17:15:34.169Z,1.31
2018-12-30T17:18:39.621Z,1.31
2018-12-30T17:21:44.896Z,1.30
2018-12-30T17:24:50.657Z,1.26
2018-12-30T17:27:56.070Z,1.23
2018-12-30T17:31:01.515Z,1.18
2018-12-30T17:34:06.790Z,1.09
2018-12-30T17:37:12.201Z,1.00
2018-12-30T17:40:17.577Z,0.91
2018-12-30T17:43:22.944Z,0.84
2018-12-30T17:46:28.216Z,0.83
2018-12-30T17:49:33.664Z,0.85
2018-12-30T17:52:38.942Z,0.92
2018-12-30T17:55:50.802Z,1.03
2018-12-30T17:58:51.329Z,1.13
2018-12-30T18:01:57.168Z,1.23
2018-12-30T18:05:02.435Z,1.30
2018-12-30T18:08:07.901Z,1.31
2018-12-30T18:11:13.172Z,1.36
2018-12-30T18:14:18.528Z,1.33
2018-12-30T18:17:23.801Z,1.33
2018-12-30T18:20:29.384Z,1.33
2018-12-30T18:23:34.664Z,1.36
2018-12-30T18:26:40.081Z,1.40
2018-12-30T18:29:45.353Z,1.42
2018-12-30T18:32:51.122Z,1.45
2018-12-30T18:35:57.934Z,1.43
2018-12-30T18:39:04.817Z,1.47
2018-12-30T18:42:10.105Z,1.47
2018-12-30T18:45:15.621Z,1.43
2018-12-30T18:48:20.896Z,1.38
2018-12-30T18:51:26.410Z,1.29
2018-12-30T18:54:31.689Z,1.28
2018-12-30T18:57:37.119Z,1.26
2018-12-30T19:00:42.402Z,1.23
2018-12-30T19:03:49.799Z,1.26
2018-12-30T19:06:55.078Z,1.19
2018-12-30T19:10:00.541Z,1.08
2018-12-30T19:13:05.890Z,0.98
2018-12-30T19:16:11.321Z,0.92
2018-12-30T19:19:16.610Z,0.88
2018-12-30T19:22:22.012Z,0.87
2018-12-30T19:25:27.294Z,0.88
2018-12-30T19:28:32.702Z,0.90
2018-12-30T19:31:37.984Z,0.96
2018-12-30T19:34:43.430Z,1.06
2018-12-30T19:37:48.706Z,1.12
2018-12-30T19:40:54.076Z,1.21
2018-12-30T19:43:59.459Z,1.28
2018-12-30T19:47:04.824Z,1.32
2018-12-30T19:50:10.333Z,1.38
2018-12-30T19:53:15.875Z,1.41
2018-12-30T19:56:22.031Z,1.44
2018-12-30T19:59:27.681Z,1.50
2018-12-30T20:02:32.966Z,1.51
2018-12-30T20:05:38.473Z,1.53
2018-12-30T20:08:43.756Z,1.55
2018-12-30T20:11:49.166Z,1.60
2018-12-30T20:14:54.449Z,1.65
2018-12-30T20:17:59.860Z,1.70
2018-12-30T20:21:05.136Z,1.73
2018-12-30T20:24:10.542Z,1.74
2018-12-30T20:27:16.855Z,1.75
2018-12-30T20:30:22.469Z,1.75
2018-12-30T20:33:27.741Z,1.78
2018-12-30T20:36:33.153Z,1.77
2018-12-30T20:39:38.448Z,1.78
2018-12-30T20:42:43.837Z,1.80
2018-12-30T20:45:49.215Z,1.83
2018-12-30T20:48:54.633Z,1.84
2018-12-30T20:51:59.910Z,1.88
2018-12-30T20:55:05.887Z,1.88
2018-12-30T20:58:11.164Z,1.91
2018-12-30T21:01:16.624Z,1.93
2018-12-30T21:04:21.905Z,1.95
2018-12-30T21:07:27.322Z,2.03
2018-12-30T21:10:32.600Z,2.03
2018-12-30T21:13:38.005Z,2.07
2018-12-30T21:16:43.282Z,2.08
2018-12-30T21:19:48.695Z,2.10
2018-12-30T21:22:55.480Z,2.11
2018-12-30T21:26:00.916Z,2.13
2018-12-30T21:29:06.347Z,2.13
2018-12-30T21:32:11.812Z,2.16
2018-12-30T21:35:17.093Z,2.15
2018-12-30T21:38:22.503Z,2.18
2018-12-30T21:41:27.781Z,2.19
2018-12-30T21:44:33.189Z,2.20
2018-12-30T21:47:38.568Z,2.21
2018-12-30T21:50:43.980Z,2.20
2018-12-30T21:53:49.278Z,2.22
2018-12-30T21:56:55.090Z,2.25
2018-12-30T22:00:00.531Z,2.27
2018-12-30T22:03:06.078Z,2.29
2018-12-30T22:06:11.359Z,2.30
2018-12-30T22:09:16.723Z,2.28
2018-12-30T22:12:22.002Z,2.31
2018-12-30T22:15:27.457Z,2.29
2018-12-30T22:18:33.069Z,2.33
2018-12-30T22:21:38.452Z,2.35
2018-12-30T22:24:43.733Z,2.32
2018-12-30T22:27:49.150Z,2.32
2018-12-30T22:30:54.467Z,2.29
2018-12-30T22:33:59.824Z,2.29
2018-12-30T22:37:05.175Z,2.31
2018-12-30T22:40:10.794Z,2.29
2018-12-30T22:43:16.029Z,2.31
2018-12-30T22:46:21.417Z,2.32
2018-12-30T22:49:26.784Z,2.37
2018-12-30T22:52:32.210Z,2.38
2018-12-30T22:55:37.480Z,2.41
2018-12-30T22:58:42.898Z,2.42
2018-12-30T23:01:48.420Z,2.41
2018-12-30T23:04:54.306Z,2.39
2018-12-30T23:07:59.584Z,2.38
2018-12-30T23:11:05.093Z,2.38
2018-12-30T23:14:10.798Z,2.37
2018-12-30T23:17:16.191Z,2.34
2018-12-30T23:20:21.473Z,2.40
2018-12-30T23:23:26.884Z,2.41
2018-12-30T23:26:32.164Z,2.37
2018-12-30T23:29:37.578Z,2.38
2018-12-30T23:32:42.853Z,2.43
2018-12-30T23:35:48.262Z,2.41
2018-12-30T23:38:53.532Z,2.39
2018-12-30T23:41:58.947Z,2.42
2018-12-30T23:45:04.569Z,2.44
2018-12-30T23:48:09.948Z,2.45
2018-12-30T23:51:15.334Z,2.39
2018-12-30T23:54:20.741Z,2.40
2018-12-30T23:57:26.022Z,2.42
